sensor_id;sensor_type;location;lat;lon;timestamp;temperature;humidity
75451;DHT22;64029;48.244;9.188;2023-12-22T15:10:21;5.80;97.90
75451;DHT22;64029;48.244;9.188;2023-12-22T15:12:48;5.80;98.30
75451;DHT22;64029;48.244;9.188;2023-12-22T15:15:15;5.80;98.30
75451;DHT22;64029;48.244;9.188;2023-12-22T15:17:42;5.80;98.50
75451;DHT22;64029;48.244;9.188;2023-12-22T15:20:09;5.90;98.50
75451;DHT22;64029;48.244;9.188;2023-12-22T15:22:36;5.90;98.70
75451;DHT22;64029;48.244;9.188;2023-12-22T15:25:03;5.90;98.60
75451;DHT22;64029;48.244;9.188;2023-12-22T15:27:31;6.00;98.70
75451;DHT22;64029;48.244;9.188;2023-12-22T15:29:58;5.90;98.60
75451;DHT22;64029;48.244;9.188;2023-12-22T15:32:25;5.90;98.70
75451;DHT22;64029;48.244;9.188;2023-12-22T15:34:52;6.00;98.80
75451;DHT22;64029;48.244;9.188;2023-12-22T15:37:18;6.00;98.60
75451;DHT22;64029;48.244;9.188;2023-12-22T15:39:45;6.00;98.70
75451;DHT22;64029;48.244;9.188;2023-12-22T15:42:12;6.00;98.90
75451;DHT22;64029;48.244;9.188;2023-12-22T15:44:41;5.90;98.80
75451;DHT22;64029;48.244;9.188;2023-12-22T15:47:07;6.00;98.70
75451;DHT22;64029;48.244;9.188;2023-12-22T15:49:37;6.00;98.70
75451;DHT22;64029;48.244;9.188;2023-12-22T15:52:04;6.00;98.90
75451;DHT22;64029;48.244;9.188;2023-12-22T15:54:31;6.00;98.90
75451;DHT22;64029;48.244;9.188;2023-12-22T15:56:58;6.00;99.00
75451;DHT22;64029;48.244;9.188;2023-12-22T15:59:25;6.00;99.20
75451;DHT22;64029;48.244;9.188;2023-12-22T16:01:53;6.00;99.00
75451;DHT22;64029;48.244;9.188;2023-12-22T16:04:20;6.00;99.20
75451;DHT22;64029;48.244;9.188;2023-12-22T16:06:47;6.00;99.10
75451;DHT22;64029;48.244;9.188;2023-12-22T16:09:13;6.00;98.90
75451;DHT22;64029;48.244;9.188;2023-12-22T16:11:40;6.00;98.80
75451;DHT22;64029;48.244;9.188;2023-12-22T16:14:07;6.00;98.90
75451;DHT22;64029;48.244;9.188;2023-12-22T16:16:34;6.00;98.80
75451;DHT22;64029;48.244;9.188;2023-12-22T16:19:02;6.00;99.00
75451;DHT22;64029;48.244;9.188;2023-12-22T16:21:29;6.00;99.00
75451;DHT22;64029;48.244;9.188;2023-12-22T16:23:56;5.90;98.90
75451;DHT22;64029;48.244;9.188;2023-12-22T16:26:23;6.00;98.90
75451;DHT22;64029;48.244;9.188;2023-12-22T16:28:50;6.00;99.00
75451;DHT22;64029;48.244;9.188;2023-12-22T16:31:16;6.00;98.90
75451;DHT22;64029;48.244;9.188;2023-12-22T16:33:44;6.00;98.90
75451;DHT22;64029;48.244;9.188;2023-12-22T16:36:12;6.00;98.80
75451;DHT22;64029;48.244;9.188;2023-12-22T16:38:41;6.00;98.60
75451;DHT22;64029;48.244;9.188;2023-12-22T16:41:08;5.90;98.50
75451;DHT22;64029;48.244;9.188;2023-12-22T16:43:35;5.90;98.60
75451;DHT22;64029;48.244;9.188;2023-12-22T16:46:02;5.90;98.50
75451;DHT22;64029;48.244;9.188;2023-12-22T16:48:29;6.00;99.20
75451;DHT22;64029;48.244;9.188;2023-12-22T16:50:55;6.00;98.60
75451;DHT22;64029;48.244;9.188;2023-12-22T16:53:25;6.00;98.60
75451;DHT22;64029;48.244;9.188;2023-12-22T16:55:52;6.00;98.70
75451;DHT22;64029;48.244;9.188;2023-12-22T16:58:19;5.90;98.60
75451;DHT22;64029;48.244;9.188;2023-12-22T17:00:46;5.90;98.60
75451;DHT22;64029;48.244;9.188;2023-12-22T17:03:13;5.90;98.60
75451;DHT22;64029;48.244;9.188;2023-12-22T17:05:40;5.90;98.60
75451;DHT22;64029;48.244;9.188;2023-12-22T17:08:07;5.90;98.60
75451;DHT22;64029;48.244;9.188;2023-12-22T17:10:37;5.90;98.50
75451;DHT22;64029;48.244;9.188;2023-12-22T17:13:04;5.90;98.50
75451;DHT22;64029;48.244;9.188;2023-12-22T17:15:33;5.90;98.50
75451;DHT22;64029;48.244;9.188;2023-12-22T17:18:01;5.90;98.40
75451;DHT22;64029;48.244;9.188;2023-12-22T17:20:30;5.90;98.50
75451;DHT22;64029;48.244;9.188;2023-12-22T17:22:57;5.90;98.70
75451;DHT22;64029;48.244;9.188;2023-12-22T17:25:23;5.90;98.80
75451;DHT22;64029;48.244;9.188;2023-12-22T17:27:52;5.90;98.90
75451;DHT22;64029;48.244;9.188;2023-12-22T17:30:18;5.90;98.70
75451;DHT22;64029;48.244;9.188;2023-12-22T17:32:47;5.90;98.90
75451;DHT22;64029;48.244;9.188;2023-12-22T17:35:14;5.90;98.70
75451;DHT22;64029;48.244;9.188;2023-12-22T17:37:41;5.90;99.00
75451;DHT22;64029;48.244;9.188;2023-12-22T17:40:08;6.00;98.90
75451;DHT22;64029;48.244;9.188;2023-12-22T17:42:35;6.00;98.80
75451;DHT22;64029;48.244;9.188;2023-12-22T17:45:05;6.00;98.70
75451;DHT22;64029;48.244;9.188;2023-12-22T17:47:32;6.00;98.90
75451;DHT22;64029;48.244;9.188;2023-12-22T17:49:59;6.10;99.10
75451;DHT22;64029;48.244;9.188;2023-12-22T17:52:26;6.10;99.00
75451;DHT22;64029;48.244;9.188;2023-12-22T17:54:53;6.10;99.20
75451;DHT22;64029;48.244;9.188;2023-12-22T17:57:20;6.00;98.90
75451;DHT22;64029;48.244;9.188;2023-12-22T17:59:47;6.10;99.30
75451;DHT22;64029;48.244;9.188;2023-12-22T18:02:15;6.10;99.20
75451;DHT22;64029;48.244;9.188;2023-12-22T18:04:43;6.10;99.20
75451;DHT22;64029;48.244;9.188;2023-12-22T18:07:10;6.10;99.10
75451;DHT22;64029;48.244;9.188;2023-12-22T18:09:38;6.10;99.20
75451;DHT22;64029;48.244;9.188;2023-12-22T18:12:06;6.10;99.20
75451;DHT22;64029;48.244;9.188;2023-12-22T18:14:32;6.10;99.00
75451;DHT22;64029;48.244;9.188;2023-12-22T18:16:59;6.10;99.10
75451;DHT22;64029;48.244;9.188;2023-12-22T18:19:28;6.10;99.00
75451;DHT22;64029;48.244;9.188;2023-12-22T18:21:55;6.10;99.10
75451;DHT22;64029;48.244;9.188;2023-12-22T18:24:21;6.10;99.20
75451;DHT22;64029;48.244;9.188;2023-12-22T18:26:49;6.10;99.10
75451;DHT22;64029;48.244;9.188;2023-12-22T18:29:20;6.10;99.00
75451;DHT22;64029;48.244;9.188;2023-12-22T18:31:46;6.10;99.00
75451;DHT22;64029;48.244;9.188;2023-12-22T18:34:14;6.10;99.00
75451;DHT22;64029;48.244;9.188;2023-12-22T18:36:42;6.10;98.90
75451;DHT22;64029;48.244;9.188;2023-12-22T18:39:09;6.00;99.10
75451;DHT22;64029;48.244;9.188;2023-12-22T18:41:37;6.00;98.70
75451;DHT22;64029;48.244;9.188;2023-12-22T18:44:04;6.00;98.60
75451;DHT22;64029;48.244;9.188;2023-12-22T18:46:30;6.00;98.60
75451;DHT22;64029;48.244;9.188;2023-12-22T18:48:58;6.00;98.60
75451;DHT22;64029;48.244;9.188;2023-12-22T18:51:24;6.00;98.60
75451;DHT22;64029;48.244;9.188;2023-12-22T18:53:53;6.00;98.70
75451;DHT22;64029;48.244;9.188;2023-12-22T18:56:20;6.00;98.70
75451;DHT22;64029;48.244;9.188;2023-12-22T18:58:48;6.00;98.70
75451;DHT22;64029;48.244;9.188;2023-12-22T19:01:15;6.00;98.80
75451;DHT22;64029;48.244;9.188;2023-12-22T19:03:42;6.00;98.70
75451;DHT22;64029;48.244;9.188;2023-12-22T19:06:11;6.00;98.60
75451;DHT22;64029;48.244;9.188;2023-12-22T19:08:38;6.00;98.50
75451;DHT22;64029;48.244;9.188;2023-12-22T19:11:06;6.00;98.70
75451;DHT22;64029;48.244;9.188;2023-12-22T19:13:33;6.00;98.80
75451;DHT22;64029;48.244;9.188;2023-12-22T19:16:01;6.00;98.70
75451;DHT22;64029;48.244;9.188;2023-12-22T19:18:28;6.00;98.60
75451;DHT22;64029;48.244;9.188;2023-12-22T19:20:54;6.00;98.40
75451;DHT22;64029;48.244;9.188;2023-12-22T19:23:21;6.00;98.50
75451;DHT22;64029;48.244;9.188;2023-12-22T19:25:48;6.00;98.50
75451;DHT22;64029;48.244;9.188;2023-12-22T19:28:16;6.00;98.70
75451;DHT22;64029;48.244;9.188;2023-12-22T19:30:43;5.90;98.40
75451;DHT22;64029;48.244;9.188;2023-12-22T19:33:10;5.90;98.50
75451;DHT22;64029;48.244;9.188;2023-12-22T19:35:37;5.90;98.50
75451;DHT22;64029;48.244;9.188;2023-12-22T19:38:04;5.90;98.40
75451;DHT22;64029;48.244;9.188;2023-12-22T19:40:32;5.90;98.20
75451;DHT22;64029;48.244;9.188;2023-12-22T19:42:59;5.90;98.30
75451;DHT22;64029;48.244;9.188;2023-12-22T19:45:27;5.90;98.40
75451;DHT22;64029;48.244;9.188;2023-12-22T19:47:54;5.90;98.40
75451;DHT22;64029;48.244;9.188;2023-12-22T19:50:21;5.90;98.50
75451;DHT22;64029;48.244;9.188;2023-12-22T19:52:47;5.90;98.50
75451;DHT22;64029;48.244;9.188;2023-12-22T19:55:14;5.90;98.50
75451;DHT22;64029;48.244;9.188;2023-12-22T19:57:41;5.80;98.40
75451;DHT22;64029;48.244;9.188;2023-12-22T20:00:09;5.90;98.50
75451;DHT22;64029;48.244;9.188;2023-12-22T20:02:38;5.80;98.50
75451;DHT22;64029;48.244;9.188;2023-12-22T20:05:05;5.80;98.50
75451;DHT22;64029;48.244;9.188;2023-12-22T20:07:32;5.90;98.70
75451;DHT22;64029;48.244;9.188;2023-12-22T20:09:59;5.90;98.60
75451;DHT22;64029;48.244;9.188;2023-12-22T20:12:29;5.90;98.50
75451;DHT22;64029;48.244;9.188;2023-12-22T20:14:56;5.90;98.60
75451;DHT22;64029;48.244;9.188;2023-12-22T20:17:23;5.90;98.50
75451;DHT22;64029;48.244;9.188;2023-12-22T20:19:51;5.90;98.40
75451;DHT22;64029;48.244;9.188;2023-12-22T20:22:18;5.90;98.50
75451;DHT22;64029;48.244;9.188;2023-12-22T20:24:46;5.90;98.60
75451;DHT22;64029;48.244;9.188;2023-12-22T20:27:13;5.90;98.60
75451;DHT22;64029;48.244;9.188;2023-12-22T20:29:40;5.90;98.50
75451;DHT22;64029;48.244;9.188;2023-12-22T20:32:07;5.90;98.60
75451;DHT22;64029;48.244;9.188;2023-12-22T20:34:34;5.90;98.60
75451;DHT22;64029;48.244;9.188;2023-12-22T20:37:02;5.90;98.50
75451;DHT22;64029;48.244;9.188;2023-12-22T20:39:30;5.90;98.60
75451;DHT22;64029;48.244;9.188;2023-12-22T20:41:56;5.90;98.60
75451;DHT22;64029;48.244;9.188;2023-12-22T20:44:22;5.80;98.50
75451;DHT22;64029;48.244;9.188;2023-12-22T20:46:51;5.90;98.60
75451;DHT22;64029;48.244;9.188;2023-12-22T20:49:18;5.90;98.60
75451;DHT22;64029;48.244;9.188;2023-12-22T20:51:45;5.90;98.60
75451;DHT22;64029;48.244;9.188;2023-12-22T20:54:19;5.90;98.60
75451;DHT22;64029;48.244;9.188;2023-12-22T20:56:46;5.90;98.70
75451;DHT22;64029;48.244;9.188;2023-12-22T20:59:13;5.90;98.70
75451;DHT22;64029;48.244;9.188;2023-12-22T21:01:44;5.90;98.70
75451;DHT22;64029;48.244;9.188;2023-12-22T21:04:12;5.80;98.50
75451;DHT22;64029;48.244;9.188;2023-12-22T21:06:40;5.90;98.70
75451;DHT22;64029;48.244;9.188;2023-12-22T21:09:07;5.90;98.60
75451;DHT22;64029;48.244;9.188;2023-12-22T21:11:37;5.90;98.60
75451;DHT22;64029;48.244;9.188;2023-12-22T21:14:04;5.80;98.70
75451;DHT22;64029;48.244;9.188;2023-12-22T21:16:33;5.80;98.80
75451;DHT22;64029;48.244;9.188;2023-12-22T21:19:00;5.80;98.70
75451;DHT22;64029;48.244;9.188;2023-12-22T21:21:27;5.80;98.60
75451;DHT22;64029;48.244;9.188;2023-12-22T21:23:54;5.80;98.70
75451;DHT22;64029;48.244;9.188;2023-12-22T21:26:22;5.80;98.80
75451;DHT22;64029;48.244;9.188;2023-12-22T21:28:50;5.80;99.00
75451;DHT22;64029;48.244;9.188;2023-12-22T21:31:17;5.80;98.80
75451;DHT22;64029;48.244;9.188;2023-12-22T21:33:44;5.80;98.80
75451;DHT22;64029;48.244;9.188;2023-12-22T21:36:18;5.80;98.70
75451;DHT22;64029;48.244;9.188;2023-12-22T21:38:45;5.80;98.70
75451;DHT22;64029;48.244;9.188;2023-12-22T21:41:14;5.80;98.60
75451;DHT22;64029;48.244;9.188;2023-12-22T21:43:41;5.80;98.80
75451;DHT22;64029;48.244;9.188;2023-12-22T21:46:09;5.80;98.60
75451;DHT22;64029;48.244;9.188;2023-12-22T21:48:36;5.80;98.60
75451;DHT22;64029;48.244;9.188;2023-12-22T21:51:04;5.80;98.60
75451;DHT22;64029;48.244;9.188;2023-12-22T21:53:31;5.80;98.30
75451;DHT22;64029;48.244;9.188;2023-12-22T21:55:58;5.80;98.80
75451;DHT22;64029;48.244;9.188;2023-12-22T21:58:25;5.80;98.60
75451;DHT22;64029;48.244;9.188;2023-12-22T22:00:53;5.80;98.70
75451;DHT22;64029;48.244;9.188;2023-12-22T22:03:22;5.80;98.70
75451;DHT22;64029;48.244;9.188;2023-12-22T22:05:50;5.80;98.60
75451;DHT22;64029;48.244;9.188;2023-12-22T22:08:17;5.80;98.70
75451;DHT22;64029;48.244;9.188;2023-12-22T22:10:44;5.80;98.60
75451;DHT22;64029;48.244;9.188;2023-12-22T22:13:11;5.80;98.60
75451;DHT22;64029;48.244;9.188;2023-12-22T22:15:38;5.80;98.50
75451;DHT22;64029;48.244;9.188;2023-12-22T22:18:05;5.80;98.50
75451;DHT22;64029;48.244;9.188;2023-12-22T22:20:35;5.80;98.60
75451;DHT22;64029;48.244;9.188;2023-12-22T22:23:02;5.80;98.50
75451;DHT22;64029;48.244;9.188;2023-12-22T22:25:29;5.80;98.40
75451;DHT22;64029;48.244;9.188;2023-12-22T22:27:57;5.80;98.50
75451;DHT22;64029;48.244;9.188;2023-12-22T22:30:24;5.80;98.40
75451;DHT22;64029;48.244;9.188;2023-12-22T22:32:51;5.80;98.50
75451;DHT22;64029;48.244;9.188;2023-12-22T22:35:18;5.80;98.50
75451;DHT22;64029;48.244;9.188;2023-12-22T22:37:46;5.70;98.40
75451;DHT22;64029;48.244;9.188;2023-12-22T22:40:13;5.70;98.40
75451;DHT22;64029;48.244;9.188;2023-12-22T22:42:40;5.70;98.60
75451;DHT22;64029;48.244;9.188;2023-12-22T22:45:08;5.80;98.50
75451;DHT22;64029;48.244;9.188;2023-12-22T22:47:35;5.70;98.50
75451;DHT22;64029;48.244;9.188;2023-12-22T22:50:00;5.70;98.40
75451;DHT22;64029;48.244;9.188;2023-12-22T22:52:28;5.70;98.40
75451;DHT22;64029;48.244;9.188;2023-12-22T22:54:56;5.70;98.40
75451;DHT22;64029;48.244;9.188;2023-12-22T22:57:23;5.70;98.40
75451;DHT22;64029;48.244;9.188;2023-12-22T22:59:50;5.70;98.50
75451;DHT22;64029;48.244;9.188;2023-12-22T23:02:18;5.70;98.40
75451;DHT22;64029;48.244;9.188;2023-12-22T23:04:47;5.70;98.40
75451;DHT22;64029;48.244;9.188;2023-12-22T23:07:13;5.70;98.40
75451;DHT22;64029;48.244;9.188;2023-12-22T23:09:40;5.70;98.30
75451;DHT22;64029;48.244;9.188;2023-12-22T23:12:08;5.70;98.40
75451;DHT22;64029;48.244;9.188;2023-12-22T23:14:35;5.70;98.40
75451;DHT22;64029;48.244;9.188;2023-12-22T23:17:02;5.70;98.50
75451;DHT22;64029;48.244;9.188;2023-12-22T23:19:29;5.70;98.40
75451;DHT22;64029;48.244;9.188;2023-12-22T23:21:56;5.70;98.30
75451;DHT22;64029;48.244;9.188;2023-12-22T23:24:22;5.70;98.30
75451;DHT22;64029;48.244;9.188;2023-12-22T23:26:49;5.70;98.40
75451;DHT22;64029;48.244;9.188;2023-12-22T23:29:17;5.70;98.30
75451;DHT22;64029;48.244;9.188;2023-12-22T23:31:44;5.70;98.40
75451;DHT22;64029;48.244;9.188;2023-12-22T23:34:11;5.70;98.30
75451;DHT22;64029;48.244;9.188;2023-12-22T23:36:38;5.70;98.30
75451;DHT22;64029;48.244;9.188;2023-12-22T23:39:05;5.70;98.30
75451;DHT22;64029;48.244;9.188;2023-12-22T23:41:31;5.70;98.20
75451;DHT22;64029;48.244;9.188;2023-12-22T23:43:58;5.60;98.10
75451;DHT22;64029;48.244;9.188;2023-12-22T23:46:26;5.60;98.10
75451;DHT22;64029;48.244;9.188;2023-12-22T23:48:53;5.60;98.20
75451;DHT22;64029;48.244;9.188;2023-12-22T23:51:20;5.60;98.20
75451;DHT22;64029;48.244;9.188;2023-12-22T23:53:47;5.60;98.10
75451;DHT22;64029;48.244;9.188;2023-12-22T23:56:14;5.60;98.30
75451;DHT22;64029;48.244;9.188;2023-12-22T23:58:40;5.60;98.20
